메인 페이지
METAR-TAF:

METAR-TAF

공항 :

Wonderboom Airport

프리토리아, 남아프리카공화국

위도: 25-39S, 경도: 028-13E, 고도: 1248m

현재 날씨관측

예보는 51분 전, 23:00시(UTC)에 발표되었습니다.
무풍
온도 6°C
습도 81%
기압 1028 hPa

METAR: FAWB 012300Z AUTO 00000KT //// // ////// 06/03 Q1028

시각: 01:51 (23:51 UTC)

예보

예보는 14 시간 51분 전, 09:00시(UTC)에 발표되었습니다.
예보 대상 시간: 01일 10시부터 01일 18시까지 (UTC)
여러 방향의 바람 3kt
시정 10km 이상
1500m 미만 상공 구름 및 적란운 없음

TAF: FAWB 010900Z 0110/0118 VRB03KT CAVOK TX25/0112Z TN15/0118Z

4,000개 이상의 공항 관측 자료 및 예보 (METAR 및 TAF 보고).

지도상에서 검색 가능한 기상관측소가 노란 점과 빨간 점으로 표시되어 있습니다.

기상관측소 명을 보려면 표시 위로 마우스를 이동하세요.

날씨 관측과 예보를 보려면 클릭하세요.

지도 변경 : 확대하려면 엑스 표시가 있는 녹색 버튼, 축소하려면 빼기 표시가 있는 녹색 버튼, 다음 페이지의 지도를 보려면 녹색 화살표를 클릭하세요.


METAR-TAF: